Terminal Aerodrome Forecast
Issued by NWS Grand Forks, ND

Home | Current Version | Previous Version | Graphics & Text | Print | Product List | Glossary On
Versions: 1 2 3 4 5 6 7 8 9 10 11 12 13 14 15 16
000
FTUS43 KFGF 231140
TAFFAR
TAF
KFAR 231140Z 2312/2412 16008KT P6SM SCT250
     FM231500 18007KT P6SM SCT120 BKN250
     FM231800 17008KT P6SM BKN100=

USA.gov is the U.S. government's official web portal to all federal, state and local government web resources and services.